Terminal Aerodrome Forecast
Issued by NWS

Home | Current Version | Previous Version | Graphics & Text | Print | Product List | Glossary On
Versions: 1 2 3 4 5 6 7 8 9 10 11 12 13 14 15 16 17 18
000
FTUS43 KFGF 170955 AAC
TAFBJI
TAF AMD
KBJI 170955Z 1710/1806 04006KT 6SM RA BKN005 OVC015
      TEMPO 1711/1712 4SM RA OVC003
     FM171200 36007KT P6SM -RA OVC003
     FM171600 35008KT P6SM OVC008
     FM172100 34009KT P6SM BKN035
     FM180100 35005KT P6SM FEW090=

USA.gov is the U.S. government's official web portal to all federal, state and local government web resources and services.